WZZ6578 EPWA-LIBD
Flight info
| Callsign | WZZ6578 |
|---|---|
| Flight time | 1h 50m |
| Altitude | 36000 |
| Route | EVINA M66 BABKO DCT KREMI DCT XOMBA DCT VEBAL/N0440F370 DCT VELIT DCT ORAKA DCT AIOSA DCT BANAV |
| Aircraft | A320/M-L/LB1 |
Departure
| Time | 2026-05-09 11:25 |
|---|---|
| Airport | Warsaw Chopin Airport (EPWA) |
Arrival
| Time | 2026-05-09 13:16 |
|---|---|
| Airport | Bari Karol Wojtyła International Airport (LIBD) |
| Time | Latitude | Longitude | Altitude | Speed | Heading |
|---|---|---|---|---|---|
| 2026-05-09 11:02 | 52.17273 | 20.96597 | 339 ft | 0 kts | 207° |
| 2026-05-09 11:19 | 52.17266 | 20.96589 | 335 ft | 2 kts | 214° |
| 2026-05-09 11:19 | 52.17249 | 20.96561 | 338 ft | 5 kts | 231° |
| 2026-05-09 11:19 | 52.17216 | 20.96548 | 339 ft | 6 kts | 162° |
| 2026-05-09 11:20 | 52.17160 | 20.96598 | 336 ft | 12 kts | 152° |
| 2026-05-09 11:20 | 52.17107 | 20.96644 | 336 ft | 13 kts | 152° |
| 2026-05-09 11:20 | 52.16990 | 20.96746 | 336 ft | 16 kts | 151° |
| 2026-05-09 11:20 | 52.16890 | 20.96833 | 336 ft | 17 kts | 152° |
| 2026-05-09 11:21 | 52.16780 | 20.96930 | 336 ft | 19 kts | 152° |
| 2026-05-09 11:21 | 52.16685 | 20.97012 | 337 ft | 16 kts | 150° |
| 2026-05-09 11:21 | 52.16647 | 20.97112 | 338 ft | 16 kts | 114° |
| 2026-05-09 11:21 | 52.16578 | 20.97357 | 335 ft | 19 kts | 115° |
| 2026-05-09 11:22 | 52.16540 | 20.97492 | 334 ft | 20 kts | 114° |
| 2026-05-09 11:22 | 52.16482 | 20.97696 | 337 ft | 18 kts | 115° |
| 2026-05-09 11:22 | 52.16433 | 20.97811 | 337 ft | 10 kts | 167° |
| 2026-05-09 11:22 | 52.16367 | 20.97769 | 338 ft | 11 kts | 206° |
| 2026-05-09 11:23 | 52.16309 | 20.97721 | 336 ft | 2 kts | 212° |
| 2026-05-09 11:23 | 52.16301 | 20.97688 | 336 ft | 4 kts | 274° |
| 2026-05-09 11:23 | 52.16313 | 20.97642 | 338 ft | 2 kts | 295° |
| 2026-05-09 11:23 | 52.16314 | 20.97640 | 338 ft | 0 kts | 295° |
| 2026-05-09 11:24 | 52.16316 | 20.97630 | 333 ft | 6 kts | 295° |
| 2026-05-09 11:24 | 52.16434 | 20.97221 | 334 ft | 74 kts | 295° |
| 2026-05-09 11:24 | 52.16727 | 20.96172 | 339 ft | 126 kts | 295° |
| 2026-05-09 11:25 | 52.17141 | 20.94697 | 481 ft | 150 kts | 297° |
| 2026-05-09 11:25 | 52.17552 | 20.93191 | 1139 ft | 144 kts | 297° |
| 2026-05-09 11:25 | 52.17959 | 20.91726 | 1707 ft | 145 kts | 296° |
| 2026-05-09 11:25 | 52.18273 | 20.90146 | 2121 ft | 156 kts | 272° |
| 2026-05-09 11:26 | 52.18040 | 20.88268 | 2266 ft | 182 kts | 259° |
| 2026-05-09 11:26 | 52.17733 | 20.86132 | 2464 ft | 206 kts | 259° |
| 2026-05-09 11:26 | 52.17400 | 20.83719 | 2790 ft | 230 kts | 260° |
| 2026-05-09 11:26 | 52.17039 | 20.81050 | 3280 ft | 250 kts | 260° |
| 2026-05-09 11:27 | 52.16661 | 20.78241 | 4071 ft | 257 kts | 261° |
| 2026-05-09 11:27 | 52.16276 | 20.75368 | 4938 ft | 262 kts | 261° |
| 2026-05-09 11:27 | 52.15784 | 20.72486 | 5754 ft | 269 kts | 249° |
| 2026-05-09 11:27 | 52.14738 | 20.69922 | 6585 ft | 277 kts | 227° |
| 2026-05-09 11:28 | 52.13241 | 20.67901 | 7432 ft | 280 kts | 220° |
| 2026-05-09 11:28 | 52.11696 | 20.65959 | 8277 ft | 281 kts | 220° |
| 2026-05-09 11:28 | 52.10143 | 20.64006 | 9131 ft | 283 kts | 220° |
| 2026-05-09 11:28 | 52.08584 | 20.62041 | 9964 ft | 284 kts | 221° |
| 2026-05-09 11:29 | 52.07010 | 20.60051 | 10544 ft | 295 kts | 221° |
| 2026-05-09 11:29 | 52.05333 | 20.57925 | 10736 ft | 317 kts | 220° |
| 2026-05-09 11:29 | 52.03557 | 20.55675 | 11166 ft | 328 kts | 220° |
| 2026-05-09 11:29 | 52.01742 | 20.53389 | 11814 ft | 332 kts | 220° |
| 2026-05-09 11:30 | 51.99905 | 20.51083 | 12494 ft | 335 kts | 220° |
| 2026-05-09 11:30 | 51.98054 | 20.48764 | 13173 ft | 338 kts | 220° |
| 2026-05-09 11:30 | 51.96148 | 20.46509 | 13818 ft | 342 kts | 214° |
| 2026-05-09 11:30 | 51.93979 | 20.44849 | 14412 ft | 349 kts | 201° |
| 2026-05-09 11:31 | 51.91591 | 20.43983 | 14985 ft | 355 kts | 189° |
| 2026-05-09 11:31 | 51.89118 | 20.43615 | 15550 ft | 358 kts | 188° |
| 2026-05-09 11:31 | 51.86628 | 20.43246 | 16123 ft | 361 kts | 188° |
| 2026-05-09 11:31 | 51.84117 | 20.42866 | 16700 ft | 363 kts | 188° |
| 2026-05-09 11:32 | 51.81592 | 20.42478 | 17267 ft | 366 kts | 188° |
| 2026-05-09 11:32 | 51.79049 | 20.42084 | 17830 ft | 369 kts | 188° |
| 2026-05-09 11:32 | 51.76489 | 20.41686 | 18385 ft | 371 kts | 188° |
| 2026-05-09 11:32 | 51.73904 | 20.41290 | 18894 ft | 374 kts | 188° |
| 2026-05-09 11:33 | 51.71304 | 20.40899 | 19395 ft | 377 kts | 188° |
| 2026-05-09 11:33 | 51.68689 | 20.40507 | 19909 ft | 379 kts | 188° |
| 2026-05-09 11:33 | 51.63410 | 20.39716 | 20915 ft | 383 kts | 188° |
| 2026-05-09 11:34 | 51.60745 | 20.39310 | 21387 ft | 385 kts | 188° |
| 2026-05-09 11:34 | 51.58069 | 20.38903 | 21848 ft | 388 kts | 188° |
| 2026-05-09 11:34 | 51.55377 | 20.38496 | 22302 ft | 390 kts | 188° |
| 2026-05-09 11:34 | 51.52668 | 20.38088 | 22763 ft | 392 kts | 188° |
| 2026-05-09 11:35 | 51.49937 | 20.37678 | 23226 ft | 395 kts | 188° |
| 2026-05-09 11:35 | 51.47191 | 20.37262 | 23661 ft | 397 kts | 188° |
| 2026-05-09 11:35 | 51.44434 | 20.36843 | 24044 ft | 399 kts | 188° |
| 2026-05-09 11:35 | 51.41663 | 20.36422 | 24422 ft | 401 kts | 188° |
| 2026-05-09 11:36 | 51.38892 | 20.35870 | 24788 ft | 401 kts | 194° |
| 2026-05-09 11:36 | 51.36205 | 20.34679 | 25159 ft | 401 kts | 200° |
| 2026-05-09 11:36 | 51.33549 | 20.33290 | 25525 ft | 403 kts | 201° |
| 2026-05-09 11:36 | 51.30881 | 20.31892 | 25893 ft | 405 kts | 201° |
| 2026-05-09 11:37 | 51.28195 | 20.30487 | 26264 ft | 407 kts | 200° |
| 2026-05-09 11:37 | 51.25499 | 20.29083 | 26621 ft | 408 kts | 200° |
| 2026-05-09 11:37 | 51.22790 | 20.27674 | 26960 ft | 410 kts | 200° |
| 2026-05-09 11:37 | 51.20104 | 20.26282 | 27292 ft | 413 kts | 200° |
| 2026-05-09 11:38 | 51.17367 | 20.24869 | 27630 ft | 415 kts | 200° |
| 2026-05-09 11:38 | 51.14576 | 20.23431 | 27988 ft | 417 kts | 200° |
| 2026-05-09 11:38 | 51.11848 | 20.22030 | 28328 ft | 419 kts | 200° |
| 2026-05-09 11:38 | 51.09033 | 20.20586 | 28673 ft | 421 kts | 200° |
| 2026-05-09 11:39 | 51.06242 | 20.19151 | 29010 ft | 423 kts | 200° |
| 2026-05-09 11:39 | 51.03432 | 20.17707 | 29347 ft | 425 kts | 200° |
| 2026-05-09 11:39 | 51.00614 | 20.16259 | 29685 ft | 427 kts | 200° |
| 2026-05-09 11:40 | 50.94984 | 20.13368 | 30424 ft | 428 kts | 200° |
| 2026-05-09 11:40 | 50.92154 | 20.11920 | 30821 ft | 427 kts | 200° |
| 2026-05-09 11:40 | 50.89325 | 20.10475 | 31212 ft | 426 kts | 200° |
| 2026-05-09 11:40 | 50.86877 | 20.09230 | 31550 ft | 426 kts | 200° |
| 2026-05-09 11:41 | 50.84142 | 20.07844 | 31934 ft | 425 kts | 200° |
| 2026-05-09 11:41 | 50.81321 | 20.06421 | 32333 ft | 425 kts | 200° |
| 2026-05-09 11:41 | 50.78509 | 20.05000 | 32722 ft | 424 kts | 200° |
| 2026-05-09 11:41 | 50.75697 | 20.03578 | 33115 ft | 424 kts | 200° |
| 2026-05-09 11:42 | 50.72898 | 20.02162 | 33515 ft | 423 kts | 200° |
| 2026-05-09 11:42 | 50.70093 | 20.00742 | 33895 ft | 422 kts | 200° |
| 2026-05-09 11:42 | 50.67308 | 19.99329 | 34350 ft | 419 kts | 200° |
| 2026-05-09 11:42 | 50.64540 | 19.97927 | 34678 ft | 418 kts | 200° |
| 2026-05-09 11:43 | 50.61769 | 19.96525 | 34958 ft | 418 kts | 200° |
| 2026-05-09 11:43 | 50.58994 | 19.95127 | 35220 ft | 419 kts | 200° |
| 2026-05-09 11:43 | 50.56221 | 19.93736 | 35477 ft | 419 kts | 200° |
| 2026-05-09 11:43 | 50.53444 | 19.92345 | 35715 ft | 419 kts | 200° |
| 2026-05-09 11:44 | 50.50658 | 19.90949 | 35960 ft | 420 kts | 200° |
| 2026-05-09 11:44 | 50.47870 | 19.89552 | 36144 ft | 421 kts | 200° |
| 2026-05-09 11:44 | 50.45070 | 19.88145 | 36195 ft | 425 kts | 200° |
| 2026-05-09 11:45 | 50.39408 | 19.85310 | 36193 ft | 428 kts | 200° |
| 2026-05-09 11:45 | 50.33727 | 19.82485 | 36194 ft | 428 kts | 200° |
| 2026-05-09 11:46 | 50.28040 | 19.79658 | 36192 ft | 429 kts | 200° |
| 2026-05-09 11:46 | 50.22358 | 19.76848 | 36193 ft | 429 kts | 200° |
| 2026-05-09 11:47 | 50.16661 | 19.74033 | 36197 ft | 429 kts | 200° |
| 2026-05-09 11:47 | 50.10962 | 19.71212 | 36190 ft | 430 kts | 200° |
| 2026-05-09 11:48 | 50.05260 | 19.68400 | 36197 ft | 430 kts | 200° |
| 2026-05-09 11:48 | 49.99587 | 19.65611 | 36201 ft | 430 kts | 200° |
| 2026-05-09 11:49 | 49.93886 | 19.62819 | 36201 ft | 430 kts | 200° |
| 2026-05-09 11:49 | 49.88175 | 19.60039 | 36187 ft | 430 kts | 200° |
| 2026-05-09 11:50 | 49.82468 | 19.57260 | 36195 ft | 430 kts | 200° |
| 2026-05-09 11:50 | 49.76764 | 19.54489 | 36196 ft | 430 kts | 200° |
| 2026-05-09 11:51 | 49.71057 | 19.51721 | 36197 ft | 430 kts | 200° |
| 2026-05-09 11:51 | 49.65346 | 19.48959 | 36182 ft | 430 kts | 200° |
| 2026-05-09 11:52 | 49.59721 | 19.45911 | 36186 ft | 427 kts | 208° |
| 2026-05-09 11:52 | 49.54337 | 19.42034 | 36188 ft | 427 kts | 207° |
| 2026-05-09 11:53 | 49.48951 | 19.38168 | 36182 ft | 427 kts | 207° |
| 2026-05-09 11:53 | 49.43559 | 19.34310 | 36182 ft | 427 kts | 207° |
| 2026-05-09 11:54 | 49.38171 | 19.30472 | 36174 ft | 427 kts | 207° |
| 2026-05-09 11:54 | 49.32818 | 19.26647 | 36164 ft | 427 kts | 207° |
| 2026-05-09 11:55 | 49.27429 | 19.22812 | 36167 ft | 427 kts | 207° |
| 2026-05-09 11:56 | 49.11255 | 19.11388 | 36144 ft | 426 kts | 207° |
| 2026-05-09 11:57 | 49.05869 | 19.07592 | 36138 ft | 426 kts | 207° |
| 2026-05-09 11:57 | 49.00489 | 19.03806 | 36127 ft | 426 kts | 208° |
| 2026-05-09 11:58 | 48.95102 | 19.00035 | 36127 ft | 426 kts | 208° |
| 2026-05-09 11:58 | 48.89721 | 18.96275 | 36126 ft | 426 kts | 208° |
| 2026-05-09 11:59 | 48.84334 | 18.92518 | 36106 ft | 426 kts | 208° |
| 2026-05-09 11:59 | 48.78946 | 18.88773 | 36119 ft | 426 kts | 208° |
| 2026-05-09 12:00 | 48.73664 | 18.84767 | 36121 ft | 424 kts | 212° |
| 2026-05-09 12:00 | 48.68516 | 18.80443 | 36119 ft | 423 kts | 213° |
| 2026-05-09 12:01 | 48.63365 | 18.76116 | 36108 ft | 423 kts | 213° |
| 2026-05-09 12:01 | 48.58186 | 18.71890 | 36113 ft | 423 kts | 212° |
| 2026-05-09 12:02 | 48.52989 | 18.67703 | 36119 ft | 423 kts | 212° |
| 2026-05-09 12:02 | 48.47795 | 18.63509 | 36118 ft | 423 kts | 212° |
| 2026-05-09 12:03 | 48.42641 | 18.59350 | 36104 ft | 423 kts | 212° |
| 2026-05-09 12:03 | 48.37456 | 18.55180 | 36113 ft | 422 kts | 212° |
| 2026-05-09 12:04 | 48.32269 | 18.51032 | 36124 ft | 422 kts | 212° |
| 2026-05-09 12:04 | 48.27091 | 18.46884 | 36134 ft | 421 kts | 212° |
| 2026-05-09 12:05 | 48.21924 | 18.42745 | 36113 ft | 420 kts | 212° |
| 2026-05-09 12:05 | 48.16769 | 18.38634 | 36117 ft | 420 kts | 212° |
| 2026-05-09 12:06 | 48.12485 | 18.35226 | 36123 ft | 419 kts | 212° |
| 2026-05-09 12:06 | 48.07331 | 18.31140 | 36123 ft | 419 kts | 212° |
| 2026-05-09 12:07 | 48.01345 | 18.26397 | 36107 ft | 419 kts | 212° |
| 2026-05-09 12:07 | 47.97031 | 18.22983 | 36116 ft | 419 kts | 212° |
| 2026-05-09 12:08 | 47.91885 | 18.18924 | 36118 ft | 419 kts | 212° |
| 2026-05-09 12:08 | 47.86734 | 18.14871 | 36125 ft | 418 kts | 212° |
| 2026-05-09 12:09 | 47.81617 | 18.10856 | 36107 ft | 418 kts | 212° |
| 2026-05-09 12:09 | 47.76456 | 18.06845 | 36115 ft | 420 kts | 209° |
| 2026-05-09 12:10 | 47.65194 | 18.01506 | 36116 ft | 426 kts | 201° |
| 2026-05-09 12:11 | 47.59522 | 17.98974 | 36109 ft | 426 kts | 201° |
| 2026-05-09 12:11 | 47.53841 | 17.96446 | 36110 ft | 426 kts | 201° |
| 2026-05-09 12:12 | 47.48157 | 17.93917 | 36122 ft | 427 kts | 201° |
| 2026-05-09 12:12 | 47.42467 | 17.91397 | 36134 ft | 427 kts | 201° |
| 2026-05-09 12:13 | 47.36781 | 17.88883 | 36123 ft | 427 kts | 201° |
| 2026-05-09 12:13 | 47.31090 | 17.86366 | 36121 ft | 427 kts | 201° |
| 2026-05-09 12:14 | 47.25389 | 17.83858 | 36124 ft | 427 kts | 201° |
| 2026-05-09 12:14 | 47.19693 | 17.81359 | 36115 ft | 427 kts | 201° |
| 2026-05-09 12:15 | 47.13996 | 17.78866 | 36121 ft | 427 kts | 201° |
| 2026-05-09 12:15 | 47.08302 | 17.76374 | 36123 ft | 427 kts | 201° |
| 2026-05-09 12:16 | 47.02652 | 17.73907 | 36108 ft | 427 kts | 201° |
| 2026-05-09 12:16 | 46.96957 | 17.71427 | 36109 ft | 426 kts | 201° |
| 2026-05-09 12:17 | 46.91267 | 17.68945 | 36110 ft | 426 kts | 201° |
| 2026-05-09 12:17 | 46.85577 | 17.66480 | 36110 ft | 426 kts | 201° |
| 2026-05-09 12:18 | 46.79877 | 17.64021 | 36098 ft | 426 kts | 201° |
| 2026-05-09 12:18 | 46.74193 | 17.61570 | 36102 ft | 426 kts | 201° |
| 2026-05-09 12:19 | 46.68547 | 17.59135 | 36107 ft | 426 kts | 201° |
| 2026-05-09 12:19 | 46.62861 | 17.56683 | 36093 ft | 426 kts | 201° |
| 2026-05-09 12:20 | 46.57177 | 17.54245 | 36099 ft | 426 kts | 200° |
| 2026-05-09 12:20 | 46.51487 | 17.51819 | 36098 ft | 426 kts | 200° |
| 2026-05-09 12:21 | 46.45809 | 17.49399 | 36098 ft | 426 kts | 201° |
| 2026-05-09 12:21 | 46.40122 | 17.46975 | 36083 ft | 426 kts | 201° |
| 2026-05-09 12:22 | 46.34429 | 17.44548 | 36083 ft | 426 kts | 201° |
| 2026-05-09 12:22 | 46.28739 | 17.42130 | 36085 ft | 426 kts | 200° |
| 2026-05-09 12:23 | 46.23049 | 17.39721 | 36073 ft | 426 kts | 201° |
| 2026-05-09 12:23 | 46.17394 | 17.37339 | 36074 ft | 426 kts | 201° |
| 2026-05-09 12:24 | 46.11697 | 17.34954 | 36072 ft | 426 kts | 200° |
| 2026-05-09 12:24 | 46.06000 | 17.32559 | 36079 ft | 426 kts | 200° |
| 2026-05-09 12:25 | 46.00289 | 17.30219 | 36069 ft | 429 kts | 196° |
| 2026-05-09 12:25 | 45.94282 | 17.29620 | 36074 ft | 436 kts | 185° |
| 2026-05-09 12:26 | 45.88215 | 17.29585 | 36072 ft | 436 kts | 185° |
| 2026-05-09 12:26 | 45.82135 | 17.29533 | 36066 ft | 437 kts | 185° |
| 2026-05-09 12:27 | 45.76059 | 17.29480 | 36071 ft | 437 kts | 185° |
| 2026-05-09 12:27 | 45.69970 | 17.29437 | 36076 ft | 437 kts | 185° |
| 2026-05-09 12:28 | 45.63876 | 17.29401 | 36060 ft | 437 kts | 185° |
| 2026-05-09 12:28 | 45.57817 | 17.29354 | 36061 ft | 438 kts | 186° |
| 2026-05-09 12:29 | 45.51715 | 17.29298 | 36061 ft | 439 kts | 186° |
| 2026-05-09 12:29 | 45.45605 | 17.29254 | 36070 ft | 439 kts | 186° |
| 2026-05-09 12:30 | 45.39492 | 17.29212 | 36071 ft | 439 kts | 186° |
| 2026-05-09 12:30 | 45.30321 | 17.29145 | 36075 ft | 439 kts | 185° |
| 2026-05-09 12:31 | 45.21163 | 17.29076 | 36061 ft | 439 kts | 186° |
| 2026-05-09 12:32 | 45.15051 | 17.29032 | 36060 ft | 439 kts | 186° |
| 2026-05-09 12:32 | 45.08928 | 17.28984 | 36069 ft | 440 kts | 186° |
| 2026-05-09 12:33 | 45.02812 | 17.28936 | 36040 ft | 440 kts | 186° |
| 2026-05-09 12:33 | 44.96679 | 17.28888 | 36059 ft | 441 kts | 186° |
| 2026-05-09 12:34 | 44.90526 | 17.28845 | 36063 ft | 442 kts | 186° |
| 2026-05-09 12:34 | 44.84364 | 17.28795 | 36046 ft | 443 kts | 187° |
| 2026-05-09 12:35 | 44.78184 | 17.28745 | 36048 ft | 445 kts | 187° |
| 2026-05-09 12:35 | 44.72018 | 17.28702 | 36055 ft | 447 kts | 187° |
| 2026-05-09 12:36 | 44.65789 | 17.28663 | 36068 ft | 447 kts | 187° |
| 2026-05-09 12:36 | 44.59565 | 17.28619 | 36057 ft | 448 kts | 187° |
| 2026-05-09 12:37 | 44.53320 | 17.28572 | 36061 ft | 449 kts | 187° |
| 2026-05-09 12:37 | 44.47054 | 17.28522 | 36063 ft | 450 kts | 187° |
| 2026-05-09 12:38 | 44.40788 | 17.28469 | 36052 ft | 451 kts | 188° |
| 2026-05-09 12:38 | 44.34498 | 17.28420 | 36058 ft | 453 kts | 188° |
| 2026-05-09 12:39 | 44.28177 | 17.28380 | 36068 ft | 454 kts | 188° |
| 2026-05-09 12:39 | 44.21851 | 17.28337 | 36063 ft | 455 kts | 189° |
| 2026-05-09 12:40 | 44.15551 | 17.28287 | 36076 ft | 456 kts | 189° |
| 2026-05-09 12:40 | 44.09196 | 17.28243 | 36073 ft | 456 kts | 188° |
| 2026-05-09 12:41 | 44.02841 | 17.28199 | 36072 ft | 457 kts | 188° |
| 2026-05-09 12:41 | 43.96454 | 17.28157 | 36085 ft | 459 kts | 188° |
| 2026-05-09 12:42 | 43.90064 | 17.28118 | 36085 ft | 460 kts | 189° |
| 2026-05-09 12:42 | 43.83660 | 17.28068 | 36076 ft | 460 kts | 189° |
| 2026-05-09 12:43 | 43.77266 | 17.28006 | 36078 ft | 460 kts | 189° |
| 2026-05-09 12:43 | 43.70867 | 17.27955 | 36080 ft | 460 kts | 189° |
| 2026-05-09 12:44 | 43.64455 | 17.27921 | 36059 ft | 460 kts | 189° |
| 2026-05-09 12:44 | 43.58053 | 17.27886 | 36073 ft | 460 kts | 189° |
| 2026-05-09 12:45 | 43.51643 | 17.27844 | 36077 ft | 460 kts | 189° |
| 2026-05-09 12:45 | 43.45277 | 17.27803 | 36078 ft | 460 kts | 189° |
| 2026-05-09 12:46 | 43.38869 | 17.27764 | 36079 ft | 460 kts | 189° |
| 2026-05-09 12:46 | 43.32462 | 17.27643 | 36077 ft | 457 kts | 192° |
| 2026-05-09 12:47 | 43.26145 | 17.27056 | 36045 ft | 454 kts | 194° |
| 2026-05-09 12:47 | 43.19850 | 17.26299 | 36061 ft | 454 kts | 194° |
| 2026-05-09 12:48 | 43.13527 | 17.25620 | 35655 ft | 456 kts | 193° |
| 2026-05-09 12:48 | 43.10387 | 17.25332 | 35487 ft | 446 kts | 193° |
| 2026-05-09 12:48 | 43.07363 | 17.25078 | 35371 ft | 435 kts | 193° |
| 2026-05-09 12:48 | 43.04381 | 17.24830 | 35280 ft | 424 kts | 194° |
| 2026-05-09 12:49 | 43.01437 | 17.24578 | 35186 ft | 415 kts | 194° |
| 2026-05-09 12:49 | 42.95611 | 17.24020 | 34979 ft | 425 kts | 194° |
| 2026-05-09 12:49 | 42.92688 | 17.23725 | 34548 ft | 426 kts | 195° |
| 2026-05-09 12:50 | 42.89728 | 17.23435 | 34033 ft | 426 kts | 195° |
| 2026-05-09 12:50 | 42.86772 | 17.23152 | 33526 ft | 427 kts | 194° |
| 2026-05-09 12:50 | 42.83804 | 17.22871 | 33016 ft | 429 kts | 194° |
| 2026-05-09 12:50 | 42.80814 | 17.22589 | 32505 ft | 431 kts | 194° |
| 2026-05-09 12:51 | 42.77807 | 17.22303 | 31967 ft | 434 kts | 193° |
| 2026-05-09 12:51 | 42.74788 | 17.22016 | 31433 ft | 437 kts | 193° |
| 2026-05-09 12:51 | 42.72778 | 17.21826 | 31068 ft | 438 kts | 193° |
| 2026-05-09 12:51 | 42.69735 | 17.21541 | 30522 ft | 438 kts | 192° |
| 2026-05-09 12:52 | 42.66700 | 17.21260 | 29949 ft | 437 kts | 192° |
| 2026-05-09 12:52 | 42.63669 | 17.20982 | 29373 ft | 436 kts | 192° |
| 2026-05-09 12:52 | 42.60653 | 17.20709 | 28827 ft | 434 kts | 192° |
| 2026-05-09 12:52 | 42.57640 | 17.20436 | 28281 ft | 432 kts | 192° |
| 2026-05-09 12:53 | 42.54650 | 17.20168 | 27743 ft | 431 kts | 190° |
| 2026-05-09 12:53 | 42.51631 | 17.20223 | 27172 ft | 435 kts | 184° |
| 2026-05-09 12:53 | 42.48616 | 17.20457 | 26672 ft | 433 kts | 184° |
| 2026-05-09 12:53 | 42.45614 | 17.20694 | 26145 ft | 432 kts | 183° |
| 2026-05-09 12:54 | 42.42619 | 17.20938 | 25625 ft | 431 kts | 183° |
| 2026-05-09 12:54 | 42.39627 | 17.21184 | 25123 ft | 430 kts | 183° |
| 2026-05-09 12:54 | 42.36640 | 17.21427 | 24624 ft | 428 kts | 183° |
| 2026-05-09 12:54 | 42.33670 | 17.21664 | 24153 ft | 427 kts | 183° |
| 2026-05-09 12:55 | 42.30706 | 17.21894 | 23672 ft | 426 kts | 183° |
| 2026-05-09 12:55 | 42.27753 | 17.22122 | 23160 ft | 424 kts | 183° |
| 2026-05-09 12:55 | 42.24818 | 17.22349 | 22703 ft | 420 kts | 182° |
| 2026-05-09 12:55 | 42.21914 | 17.22574 | 22237 ft | 416 kts | 182° |
| 2026-05-09 12:56 | 42.19034 | 17.22800 | 21775 ft | 413 kts | 182° |
| 2026-05-09 12:56 | 42.16171 | 17.23027 | 21302 ft | 410 kts | 182° |
| 2026-05-09 12:56 | 42.13330 | 17.23253 | 20822 ft | 407 kts | 181° |
| 2026-05-09 12:56 | 42.10511 | 17.23475 | 20336 ft | 404 kts | 181° |
| 2026-05-09 12:57 | 42.07712 | 17.23693 | 19855 ft | 402 kts | 181° |
| 2026-05-09 12:57 | 42.04928 | 17.23913 | 19356 ft | 400 kts | 181° |
| 2026-05-09 12:57 | 42.02150 | 17.24131 | 18854 ft | 398 kts | 180° |
| 2026-05-09 12:57 | 41.99417 | 17.24342 | 18351 ft | 397 kts | 180° |
| 2026-05-09 12:58 | 41.96666 | 17.24451 | 17785 ft | 392 kts | 187° |
| 2026-05-09 12:58 | 41.94016 | 17.23885 | 17300 ft | 382 kts | 200° |
| 2026-05-09 12:58 | 41.91569 | 17.22615 | 16803 ft | 372 kts | 212° |
| 2026-05-09 12:58 | 41.89417 | 17.20755 | 16334 ft | 362 kts | 223° |
| 2026-05-09 12:59 | 41.87545 | 17.18547 | 15875 ft | 357 kts | 226° |
| 2026-05-09 12:59 | 41.85697 | 17.16339 | 15411 ft | 354 kts | 226° |
| 2026-05-09 12:59 | 41.83862 | 17.14153 | 14945 ft | 351 kts | 225° |
| 2026-05-09 12:59 | 41.82043 | 17.11994 | 14486 ft | 348 kts | 225° |
| 2026-05-09 13:00 | 41.80254 | 17.09872 | 14028 ft | 346 kts | 225° |
| 2026-05-09 13:00 | 41.78455 | 17.07743 | 13540 ft | 343 kts | 225° |
| 2026-05-09 13:00 | 41.76670 | 17.05632 | 13076 ft | 340 kts | 225° |
| 2026-05-09 13:00 | 41.74905 | 17.03541 | 12629 ft | 337 kts | 224° |
| 2026-05-09 13:01 | 41.73023 | 17.01656 | 12152 ft | 339 kts | 213° |
| 2026-05-09 13:01 | 41.70874 | 17.00358 | 11677 ft | 341 kts | 200° |
| 2026-05-09 13:01 | 41.68593 | 16.99489 | 11204 ft | 341 kts | 198° |
| 2026-05-09 13:01 | 41.66313 | 16.98631 | 10730 ft | 340 kts | 198° |
| 2026-05-09 13:02 | 41.64045 | 16.97772 | 10427 ft | 334 kts | 198° |
| 2026-05-09 13:02 | 41.61851 | 16.96938 | 10293 ft | 322 kts | 198° |
| 2026-05-09 13:02 | 41.59751 | 16.96140 | 10186 ft | 312 kts | 198° |
| 2026-05-09 13:02 | 41.57695 | 16.95360 | 10029 ft | 304 kts | 198° |
| 2026-05-09 13:03 | 41.55673 | 16.94594 | 9729 ft | 301 kts | 198° |
| 2026-05-09 13:03 | 41.53612 | 16.94113 | 9351 ft | 302 kts | 183° |
| 2026-05-09 13:03 | 41.51521 | 16.94373 | 9007 ft | 302 kts | 167° |
| 2026-05-09 13:03 | 41.49541 | 16.95310 | 8659 ft | 302 kts | 158° |
| 2026-05-09 13:04 | 41.47613 | 16.96374 | 8418 ft | 296 kts | 158° |
| 2026-05-09 13:04 | 41.45734 | 16.97410 | 8297 ft | 288 kts | 158° |
| 2026-05-09 13:04 | 41.43913 | 16.98417 | 8150 ft | 280 kts | 158° |
| 2026-05-09 13:04 | 41.42113 | 16.99363 | 7914 ft | 276 kts | 160° |
| 2026-05-09 13:05 | 41.40316 | 17.00250 | 7643 ft | 275 kts | 160° |
| 2026-05-09 13:05 | 41.38521 | 17.01117 | 7369 ft | 274 kts | 160° |
| 2026-05-09 13:05 | 41.36736 | 17.01977 | 7183 ft | 269 kts | 160° |
| 2026-05-09 13:05 | 41.35088 | 17.03043 | 7022 ft | 262 kts | 139° |
| 2026-05-09 13:06 | 41.34083 | 17.04955 | 6767 ft | 255 kts | 104° |
| 2026-05-09 13:06 | 41.34011 | 17.07255 | 6477 ft | 248 kts | 71° |
| 2026-05-09 13:06 | 41.34661 | 17.09363 | 6146 ft | 246 kts | 64° |
| 2026-05-09 13:06 | 41.35163 | 17.11530 | 5850 ft | 249 kts | 85° |
| 2026-05-09 13:07 | 41.34762 | 17.13743 | 5588 ft | 251 kts | 120° |
| 2026-05-09 13:07 | 41.33500 | 17.15318 | 5283 ft | 252 kts | 154° |
| 2026-05-09 13:07 | 41.31860 | 17.16143 | 4972 ft | 252 kts | 160° |
| 2026-05-09 13:07 | 41.30210 | 17.16941 | 4668 ft | 252 kts | 159° |
| 2026-05-09 13:08 | 41.28576 | 17.17741 | 4468 ft | 247 kts | 159° |
| 2026-05-09 13:08 | 41.26929 | 17.18323 | 4394 ft | 245 kts | 179° |
| 2026-05-09 13:08 | 41.25295 | 17.17819 | 4326 ft | 242 kts | 212° |
| 2026-05-09 13:08 | 41.24116 | 17.16290 | 4273 ft | 237 kts | 244° |
| 2026-05-09 13:09 | 41.23496 | 17.14272 | 4222 ft | 236 kts | 253° |
| 2026-05-09 13:09 | 41.22930 | 17.12220 | 4161 ft | 236 kts | 252° |
| 2026-05-09 13:09 | 41.22362 | 17.10170 | 4100 ft | 236 kts | 252° |
| 2026-05-09 13:09 | 41.21793 | 17.08130 | 4043 ft | 232 kts | 252° |
| 2026-05-09 13:10 | 41.21353 | 17.06131 | 3932 ft | 221 kts | 262° |
| 2026-05-09 13:10 | 41.21050 | 17.04101 | 3422 ft | 227 kts | 261° |
| 2026-05-09 13:10 | 41.20746 | 17.02099 | 3249 ft | 213 kts | 261° |
| 2026-05-09 13:10 | 41.20460 | 17.00249 | 3180 ft | 196 kts | 261° |
| 2026-05-09 13:11 | 41.20182 | 16.98545 | 3078 ft | 183 kts | 256° |
| 2026-05-09 13:11 | 41.19753 | 16.96994 | 2897 ft | 176 kts | 252° |
| 2026-05-09 13:11 | 41.19328 | 16.95496 | 2727 ft | 170 kts | 252° |
| 2026-05-09 13:11 | 41.18919 | 16.94051 | 2535 ft | 165 kts | 253° |
| 2026-05-09 13:12 | 41.18525 | 16.92646 | 2386 ft | 159 kts | 253° |
| 2026-05-09 13:12 | 41.18143 | 16.91286 | 2226 ft | 156 kts | 253° |
| 2026-05-09 13:12 | 41.17770 | 16.89957 | 2091 ft | 151 kts | 253° |
| 2026-05-09 13:12 | 41.17410 | 16.88673 | 1911 ft | 150 kts | 253° |
| 2026-05-09 13:13 | 41.17041 | 16.87360 | 1704 ft | 150 kts | 254° |
| 2026-05-09 13:13 | 41.16681 | 16.86085 | 1500 ft | 149 kts | 253° |
| 2026-05-09 13:13 | 41.16317 | 16.84797 | 1302 ft | 148 kts | 253° |
| 2026-05-09 13:13 | 41.15955 | 16.83513 | 1098 ft | 148 kts | 254° |
| 2026-05-09 13:14 | 41.15590 | 16.82225 | 897 ft | 149 kts | 256° |
| 2026-05-09 13:14 | 41.15223 | 16.80928 | 729 ft | 150 kts | 255° |
| 2026-05-09 13:16 | 41.13517 | 16.74875 | 138 ft | 29 kts | 247° |
| 2026-05-09 13:16 | 41.13443 | 16.74739 | 142 ft | 15 kts | 194° |
| 2026-05-09 13:16 | 41.13378 | 16.74805 | 147 ft | 12 kts | 120° |
| 2026-05-09 13:16 | 41.13344 | 16.74910 | 148 ft | 13 kts | 91° |
| 2026-05-09 13:17 | 41.13374 | 16.75034 | 148 ft | 15 kts | 69° |
| 2026-05-09 13:17 | 41.13416 | 16.75182 | 145 ft | 20 kts | 69° |
| 2026-05-09 13:17 | 41.13467 | 16.75360 | 142 ft | 17 kts | 69° |
| 2026-05-09 13:17 | 41.13498 | 16.75471 | 143 ft | 12 kts | 70° |
| 2026-05-09 13:18 | 41.13534 | 16.75599 | 138 ft | 18 kts | 69° |
| 2026-05-09 13:18 | 41.13582 | 16.75769 | 138 ft | 19 kts | 70° |
| 2026-05-09 13:18 | 41.13618 | 16.75895 | 136 ft | 12 kts | 69° |
| 2026-05-09 13:18 | 41.13640 | 16.76002 | 136 ft | 11 kts | 97° |
| 2026-05-09 13:19 | 41.13606 | 16.76060 | 136 ft | 9 kts | 141° |
| 2026-05-09 13:19 | 41.13557 | 16.76115 | 136 ft | 10 kts | 130° |
| 2026-05-09 13:19 | 41.13553 | 16.76184 | 136 ft | 6 kts | 72° |
| 2026-05-09 13:19 | 41.13530 | 16.76222 | 136 ft | 6 kts | 161° |
| 2026-05-09 13:20 | 41.13498 | 16.76236 | 136 ft | 3 kts | 159° |
| 2026-05-09 13:20 | 41.13497 | 16.76236 | 136 ft | 0 kts | 159° |